Terminal Aerodrome Forecast
Issued by NWS Omaha/Valley, NE

Home | Current Version | Previous Version | Text Only | Print | Product List | Glossary Off
Versions: 1 2 3 4 5 6 7 8 9 10 11 12 13 14 15 16 17 18 19 20 21 22 23 24 25 26 27 28 29 30 31 32

000
FTUS43 KOAX 311720
TAFOFK
TAF
KOFK 311720Z 3118/0118 14012G19KT P6SM SCT035 BKN100
     FM312200 13011KT P6SM SCT090 BKN250
     FM010300 12007KT P6SM SCT030 OVC080
     FM011100 14007KT P6SM BKN030=

USA.gov is the U.S. government's official web portal to all federal, state and local government web resources and services.